Time;durP1;ratioP1;P1;durP2;ratioP2;P2;SDS_P1;SDS_P2;PMS_P1;PMS_P2;Temp;Humidity;BMP_temperature;BMP_pressure;BME280_temperature;BME280_humidity;BME280_pressure;Samples;Min_cycle;Max_cycle;Signal;HPM_P1;HPM_P2
2023/10/22 00:00:07;;;;;;;;;;;;;;;10.69;91.20;100432.56;105951;1254;58808;-81
2023/10/22 00:02:35;;;;;;;;;;;;;;;10.70;91.21;100436.23;105926;1254;124788;-84
2023/10/22 00:05:05;;;;;;;;;;;;;;;10.69;91.18;100440.80;106100;1254;65278;-81
2023/10/22 00:07:32;;;;;;;;;;;;;;;10.69;91.29;100438.52;106102;1254;72710;-82
2023/10/22 00:09:59;;;;;;;;;;;;;;;10.71;91.37;100444.17;105950;1254;124889;-82
2023/10/22 00:12:25;;;;;;;;;;;;;;;10.69;91.39;100437.29;106093;1254;60499;-82
2023/10/22 00:14:52;;;;;;;;;;;;;;;10.71;91.42;100434.33;105889;1254;124765;-82
2023/10/22 00:17:18;;;;;;;;;;;;;;;10.71;91.46;100429.77;105988;1254;65959;-81
2023/10/22 00:19:45;;;;;;;;;;;;;;;10.70;91.54;100429.23;105952;1257;72475;-82
2023/10/22 00:22:13;;;;;;;;;;;;;;;10.70;91.50;100427.84;105916;1257;124768;-83
2023/10/22 00:24:41;;;;;;;;;;;;;;;10.70;91.54;100429.40;105888;1254;60532;-83
2023/10/22 00:27:07;;;;;;;;;;;;;;;10.69;91.61;100427.46;105895;1255;124660;-82
2023/10/22 00:29:34;;;;;;;;;;;;;;;10.69;91.72;100422.73;105930;1254;64797;-82
2023/10/22 00:32:00;;;;;;;;;;;;;;;10.68;91.62;100422.70;105848;1258;125045;-81
2023/10/22 00:34:27;;;;;;;;;;;;;;;10.64;91.63;100425.61;106079;1259;60464;-83
2023/10/22 00:36:53;;;;;;;;;;;;;;;10.61;91.61;100430.64;106026;1257;60471;-83
2023/10/22 00:39:20;;;;;;;;;;;;;;;10.60;91.74;100427.80;105896;1255;124832;-82
2023/10/22 00:41:47;;;;;;;;;;;;;;;10.59;91.78;100431.83;105894;1255;65679;-82
2023/10/22 00:44:13;;;;;;;;;;;;;;;10.61;92.10;100432.04;105791;1254;124757;-82
2023/10/22 00:46:40;;;;;;;;;;;;;;;10.62;92.13;100439.10;105950;1254;60303;-82
2023/10/22 00:49:06;;;;;;;;;;;;;;;10.62;92.16;100437.84;105971;1254;60430;-83
2023/10/22 00:51:33;;;;;;;;;;;;;;;10.61;92.17;100437.13;105864;1259;125122;-82
2023/10/22 00:53:59;;;;;;;;;;;;;;;10.59;92.11;100433.74;106033;1254;60455;-82
2023/10/22 00:56:26;;;;;;;;;;;;;;;10.60;92.18;100434.11;105921;1254;124724;-82
2023/10/22 00:58:53;;;;;;;;;;;;;;;10.60;92.10;100435.70;105940;1254;60444;-82
2023/10/22 01:01:19;;;;;;;;;;;;;;;10.60;92.16;100435.34;105860;1260;60375;-82
2023/10/22 01:03:46;;;;;;;;;;;;;;;10.60;92.20;100437.98;105769;1254;126068;-83
2023/10/22 01:06:13;;;;;;;;;;;;;;;10.60;92.38;100437.46;106093;1254;66050;-82
2023/10/22 01:08:39;;;;;;;;;;;;;;;10.60;92.23;100427.09;105924;1256;124737;-82
2023/10/22 01:11:09;;;;;;;;;;;;;;;10.60;92.35;100429.02;105965;1254;60604;-82
2023/10/22 01:13:36;;;;;;;;;;;;;;;10.59;92.35;100428.48;105936;1261;60424;-82
2023/10/22 01:16:03;;;;;;;;;;;;;;;10.57;92.24;100427.23;105886;1258;124754;-82
2023/10/22 01:18:30;;;;;;;;;;;;;;;10.56;92.34;100427.38;105801;1257;65113;-82
2023/10/22 01:20:56;;;;;;;;;;;;;;;10.56;92.35;100433.33;105818;1254;125018;-82
2023/10/22 01:23:23;;;;;;;;;;;;;;;10.56;92.49;100442.46;105919;1256;60373;-82
2023/10/22 01:25:49;;;;;;;;;;;;;;;10.55;92.39;100432.09;105929;1258;61121;-82
2023/10/22 01:28:16;;;;;;;;;;;;;;;10.56;92.42;100426.48;105863;1256;125771;-82
2023/10/22 01:30:43;;;;;;;;;;;;;;;10.56;92.31;100429.30;106047;1254;64866;-82
2023/10/22 01:33:09;;;;;;;;;;;;;;;10.56;92.42;100432.99;105630;1256;124882;-82
2023/10/22 01:35:37;;;;;;;;;;;;;;;10.56;92.41;100431.59;105999;1254;60602;-83
2023/10/22 01:38:04;;;;;;;;;;;;;;;10.57;92.48;100432.66;106411;1257;124729;-81
2023/10/22 01:40:30;;;;;;;;;;;;;;;10.57;92.46;100437.93;105974;1254;73575;-82
2023/10/22 01:42:57;;;;;;;;;;;;;;;10.56;92.35;100436.32;106012;1257;60646;-82
2023/10/22 01:45:24;;;;;;;;;;;;;;;10.55;92.56;100434.20;105898;1254;125304;-82
2023/10/22 01:47:50;;;;;;;;;;;;;;;10.57;92.42;100438.27;105838;1260;62976;-82
2023/10/22 01:50:17;;;;;;;;;;;;;;;10.56;92.49;100433.70;105834;1254;124908;-82
2023/10/22 01:52:43;;;;;;;;;;;;;;;10.56;92.39;100434.58;106016;1257;71879;-82
2023/10/22 01:55:10;;;;;;;;;;;;;;;10.54;92.41;100429.96;105802;1254;60377;-82
2023/10/22 01:57:36;;;;;;;;;;;;;;;10.51;92.25;100433.23;105919;1257;124725;-81
2023/10/22 02:00:04;;;;;;;;;;;;;;;10.50;92.32;100433.59;105992;1254;60553;-82
2023/10/22 02:02:30;;;;;;;;;;;;;;;10.49;92.27;100433.38;105923;1254;125382;-75
2023/10/22 02:04:57;;;;;;;;;;;;;;;10.46;92.27;100431.73;106093;1254;72850;-82
2023/10/22 02:07:23;;;;;;;;;;;;;;;10.45;92.24;100438.04;105835;1254;65998;-82
2023/10/22 02:09:50;;;;;;;;;;;;;;;10.46;92.28;100437.88;105915;1254;124755;-81
2023/10/22 02:12:16;;;;;;;;;;;;;;;10.46;92.27;100433.50;105914;1256;61345;-83
2023/10/22 02:14:43;;;;;;;;;;;;;;;10.45;92.18;100432.42;105877;1254;125031;-82
2023/10/22 02:17:09;;;;;;;;;;;;;;;10.44;92.17;100430.48;105926;1254;61290;-83
2023/10/22 02:19:36;;;;;;;;;;;;;;;10.44;92.27;100438.02;105940;1254;61225;-82
2023/10/22 02:22:03;;;;;;;;;;;;;;;10.42;91.94;100440.77;105828;1254;124836;-82
2023/10/22 02:24:29;;;;;;;;;;;;;;;10.39;92.07;100434.91;105983;1254;61261;-82
2023/10/22 02:26:56;;;;;;;;;;;;;;;10.36;91.97;100427.51;105902;1257;124942;-82
2023/10/22 02:29:23;;;;;;;;;;;;;;;10.35;91.99;100423.63;105898;1258;74429;-82
2023/10/22 02:31:49;;;;;;;;;;;;;;;10.36;92.10;100430.48;105966;1255;66746;-81
2023/10/22 02:34:16;;;;;;;;;;;;;;;10.35;92.03;100433.63;105815;1257;125180;-82
2023/10/22 02:36:43;;;;;;;;;;;;;;;10.35;92.11;100431.16;105938;1254;61113;-82
2023/10/22 02:39:11;;;;;;;;;;;;;;;10.36;92.10;100422.95;105880;1254;124698;-83
2023/10/22 02:41:38;;;;;;;;;;;;;;;10.37;92.16;100419.81;106006;1254;74667;-82
2023/10/22 02:44:04;;;;;;;;;;;;;;;10.38;92.14;100418.78;105855;1256;125282;-81
2023/10/22 02:46:31;;;;;;;;;;;;;;;10.38;92.13;100418.95;106009;1254;61253;-82
2023/10/22 02:49:01;;;;;;;;;;;;;;;10.36;91.90;100418.02;105941;1254;59575;-82
2023/10/22 02:51:27;;;;;;;;;;;;;;;10.27;91.63;100417.47;105911;1257;125653;-82
2023/10/22 02:53:54;;;;;;;;;;;;;;;10.22;91.68;100413.67;105896;1255;74509;-83
2023/10/22 02:56:20;;;;;;;;;;;;;;;10.21;91.66;100416.09;105914;1257;124903;-83
2023/10/22 02:58:47;;;;;;;;;;;;;;;10.20;91.76;100416.78;105962;1256;70424;-82
2023/10/22 03:01:16;;;;;;;;;;;;;;;10.18;91.73;100420.41;105931;1255;61372;-83
2023/10/22 03:03:44;;;;;;;;;;;;;;;10.16;91.76;100419.50;105936;1254;124916;-83
2023/10/22 03:06:11;;;;;;;;;;;;;;;10.16;91.82;100419.67;106050;1256;74307;-83
2023/10/22 03:08:38;;;;;;;;;;;;;;;10.17;91.94;100422.86;105921;1254;125271;-82
2023/10/22 03:11:05;;;;;;;;;;;;;;;10.17;91.84;100427.06;105997;1257;72547;-83
2023/10/22 03:13:32;;;;;;;;;;;;;;;10.16;91.78;100422.67;105985;1254;61203;-82
2023/10/22 03:16:11;;;;;;;;;;;;;;;10.17;91.77;100422.67;105890;1257;124858;-82
2023/10/22 03:18:38;;;;;;;;;;;;;;;10.15;91.77;100422.12;106668;1254;74749;-83
2023/10/22 03:21:11;;;;;;;;;;;;;;;10.14;91.60;100417.89;106012;1255;124916;-82
2023/10/22 03:23:43;;;;;;;;;;;;;;;10.14;91.74;100412.63;106018;1254;70561;-82
2023/10/22 03:26:13;;;;;;;;;;;;;;;10.15;91.69;100409.83;105725;1258;124920;-82
2023/10/22 03:28:39;;;;;;;;;;;;;;;10.14;91.68;100408.77;106060;1254;61326;-82
2023/10/22 03:31:06;;;;;;;;;;;;;;;10.14;91.50;100416.50;105970;1255;74238;-83
2023/10/22 03:33:33;;;;;;;;;;;;;;;10.13;91.41;100426.98;106000;1258;124830;-82
2023/10/22 03:35:59;;;;;;;;;;;;;;;10.14;91.61;100426.64;105936;1255;72662;-82
2023/10/22 03:38:26;;;;;;;;;;;;;;;10.16;91.62;100432.31;105749;1259;124991;-82
2023/10/22 03:40:57;;;;;;;;;;;;;;;10.16;91.58;100435.82;106020;1255;61153;-82
2023/10/22 03:43:24;;;;;;;;;;;;;;;10.17;91.56;100437.93;105906;1254;73397;-83
2023/10/22 03:45:50;;;;;;;;;;;;;;;10.16;91.43;100442.48;105831;1254;125041;-82
2023/10/22 03:48:17;;;;;;;;;;;;;;;10.15;91.46;100444.55;105912;1254;61347;-83
2023/10/22 03:50:43;;;;;;;;;;;;;;;10.14;91.39;100447.17;105802;1254;125043;-82
2023/10/22 03:53:10;;;;;;;;;;;;;;;10.14;91.45;100441.56;105883;1258;61074;-83
2023/10/22 03:55:36;;;;;;;;;;;;;;;10.12;91.32;100445.04;105800;1260;73861;-83
2023/10/22 03:58:03;;;;;;;;;;;;;;;10.12;91.35;100439.41;105892;1258;125086;-83
2023/10/22 04:00:30;;;;;;;;;;;;;;;10.11;91.44;100441.50;106040;1258;61366;-83
2023/10/22 04:02:56;;;;;;;;;;;;;;;10.10;91.33;100444.64;105869;1259;125332;-83
2023/10/22 04:05:23;;;;;;;;;;;;;;;10.10;91.31;100447.25;106055;1254;61296;-82
2023/10/22 04:07:49;;;;;;;;;;;;;;;10.11;91.43;100450.43;106012;1255;74616;-83
2023/10/22 04:10:16;;;;;;;;;;;;;;;10.10;91.43;100451.48;105935;1253;126066;-83
2023/10/22 04:12:42;;;;;;;;;;;;;;;10.12;91.44;100448.00;106053;1254;65749;-82
2023/10/22 04:15:09;;;;;;;;;;;;;;;10.13;91.52;100445.05;105914;1253;124864;-82
2023/10/22 04:17:36;;;;;;;;;;;;;;;10.16;91.60;100440.20;106009;1254;61701;-82
2023/10/22 04:20:02;;;;;;;;;;;;;;;10.18;91.52;100439.72;105986;1252;125506;-81
2023/10/22 04:22:29;;;;;;;;;;;;;;;10.20;91.63;100447.46;106083;1257;66031;-82
2023/10/22 04:24:56;;;;;;;;;;;;;;;10.21;91.59;100446.09;106016;1254;73241;-82
2023/10/22 04:27:22;;;;;;;;;;;;;;;10.22;91.62;100447.86;105928;1253;124763;-82
2023/10/22 04:29:49;;;;;;;;;;;;;;;10.22;91.72;100449.44;105943;1254;59950;-82
2023/10/22 04:32:19;;;;;;;;;;;;;;;10.22;91.65;100455.23;108090;1252;125149;-82
2023/10/22 04:34:45;;;;;;;;;;;;;;;10.22;91.65;100458.04;106060;1254;66255;-82
2023/10/22 04:37:13;;;;;;;;;;;;;;;10.23;91.69;100457.89;105996;1253;61384;-82
2023/10/22 04:39:41;;;;;;;;;;;;;;;10.24;91.93;100456.86;105974;1257;124900;-82
2023/10/22 04:42:07;;;;;;;;;;;;;;;10.26;91.78;100458.12;106085;1254;61228;-82
2023/10/22 04:44:34;;;;;;;;;;;;;;;10.25;91.69;100456.89;105997;1254;124885;-81
2023/10/22 04:47:01;;;;;;;;;;;;;;;10.26;91.81;100461.98;106067;1254;61357;-82
2023/10/22 04:49:30;;;;;;;;;;;;;;;10.28;91.92;100462.39;106066;1254;71690;-82
2023/10/22 04:51:57;;;;;;;;;;;;;;;10.29;91.91;100460.83;105903;1256;124790;-81
2023/10/22 04:54:23;;;;;;;;;;;;;;;10.28;91.90;100459.57;105945;1253;61127;-82
2023/10/22 04:56:50;;;;;;;;;;;;;;;10.28;91.85;100461.67;105950;1257;124726;-82
2023/10/22 04:59:23;;;;;;;;;;;;;;;10.28;91.96;100463.27;106077;1257;61251;-75
2023/10/22 05:01:53;;;;;;;;;;;;;;;10.27;91.84;100457.27;105904;1254;71140;-82
2023/10/22 05:04:19;;;;;;;;;;;;;;;10.26;91.79;100457.77;105928;1257;124561;-81
2023/10/22 05:06:46;;;;;;;;;;;;;;;10.24;91.78;100461.95;106279;1257;61165;-82
2023/10/22 05:09:13;;;;;;;;;;;;;;;10.24;91.89;100462.98;105994;1257;125185;-82
2023/10/22 05:11:39;;;;;;;;;;;;;;;10.23;91.68;100460.52;106054;1257;65062;-82
2023/10/22 05:14:06;;;;;;;;;;;;;;;10.22;91.70;100454.71;105955;1254;124878;-81
2023/10/22 05:16:33;;;;;;;;;;;;;;;10.22;91.58;100455.23;105966;1257;61169;-81
2023/10/22 05:19:00;;;;;;;;;;;;;;;10.20;91.56;100452.02;106008;1254;61195;-81
2023/10/22 05:21:26;;;;;;;;;;;;;;;10.18;91.52;100451.83;105960;1258;125382;-82
2023/10/22 05:23:53;;;;;;;;;;;;;;;10.17;91.49;100452.13;105984;1254;66593;-83
2023/10/22 05:26:19;;;;;;;;;;;;;;;10.17;91.58;100453.90;105882;1254;124888;-81
2023/10/22 05:28:46;;;;;;;;;;;;;;;10.18;91.50;100457.23;106090;1254;59663;-83
2023/10/22 05:31:13;;;;;;;;;;;;;;;10.18;91.59;100455.31;106085;1257;61090;-82
2023/10/22 05:33:40;;;;;;;;;;;;;;;10.20;91.64;100455.19;105878;1254;126010;-82
2023/10/22 05:36:14;;;;;;;;;;;;;;;10.21;91.65;100446.08;106004;1254;64749;-82
2023/10/22 05:38:41;;;;;;;;;;;;;;;10.19;91.45;100444.65;105905;1256;125014;-82
2023/10/22 05:41:08;;;;;;;;;;;;;;;10.16;91.42;100448.80;105829;1260;61356;-83
2023/10/22 05:43:35;;;;;;;;;;;;;;;10.18;91.63;100453.91;106019;1254;61165;-83
2023/10/22 05:46:01;;;;;;;;;;;;;;;10.19;91.67;100459.72;105922;1256;125133;-83
2023/10/22 05:48:28;;;;;;;;;;;;;;;10.21;91.72;100461.70;106067;1254;61350;-83
2023/10/22 05:50:54;;;;;;;;;;;;;;;10.23;91.63;100461.73;105921;1258;124731;-82
2023/10/22 05:53:21;;;;;;;;;;;;;;;10.25;91.70;100461.44;106092;1257;61248;-82
2023/10/22 05:55:54;;;;;;;;;;;;;;;10.28;91.66;100456.92;106038;1257;61170;-82
2023/10/22 05:58:21;;;;;;;;;;;;;;;10.31;91.64;100465.08;106014;1258;124540;-82
2023/10/22 06:00:48;;;;;;;;;;;;;;;10.34;91.72;100468.15;106074;1254;61286;-82
2023/10/22 06:03:14;;;;;;;;;;;;;;;10.37;91.75;100466.65;105961;1257;124851;-82
2023/10/22 06:05:41;;;;;;;;;;;;;;;10.42;91.87;100463.06;106054;1254;61515;-83
2023/10/22 06:08:07;;;;;;;;;;;;;;;10.47;91.80;100450.89;106007;1254;125690;-80
2023/10/22 06:10:40;;;;;;;;;;;;;;;10.53;91.81;100451.52;105994;1257;74773;-82
2023/10/22 06:13:07;;;;;;;;;;;;;;;10.57;91.64;100451.24;106004;1254;64387;-82
2023/10/22 06:15:35;;;;;;;;;;;;;;;10.59;91.59;100448.14;105929;1254;124858;-82
2023/10/22 06:18:04;;;;;;;;;;;;;;;10.62;91.54;100446.98;106013;1254;62043;-82
2023/10/22 06:20:31;;;;;;;;;;;;;;;10.66;91.55;100449.34;105966;1254;124942;-82
2023/10/22 06:22:58;;;;;;;;;;;;;;;10.73;91.59;100448.77;105967;1253;74878;-82
2023/10/22 06:25:24;;;;;;;;;;;;;;;10.78;91.47;100447.64;105993;1254;64841;-82
2023/10/22 06:27:51;;;;;;;;;;;;;;;10.83;91.39;100454.06;105878;1254;124856;-82
2023/10/22 06:30:22;;;;;;;;;;;;;;;10.88;91.30;100455.20;106038;1257;61360;-82
2023/10/22 06:32:49;;;;;;;;;;;;;;;10.93;91.36;100459.14;105766;1254;124826;-82
2023/10/22 06:35:15;;;;;;;;;;;;;;;10.99;91.32;100465.23;106017;1254;74462;-82
2023/10/22 06:37:42;;;;;;;;;;;;;;;11.04;91.17;100462.18;105919;1254;66025;-82
2023/10/22 06:40:09;;;;;;;;;;;;;;;11.09;91.06;100461.55;105928;1254;124766;-82
2023/10/22 06:42:35;;;;;;;;;;;;;;;11.13;90.95;100462.70;106019;1256;61322;-82
2023/10/22 06:45:05;;;;;;;;;;;;;;;11.15;90.71;100463.06;105901;1255;125464;-82
2023/10/22 06:47:34;;;;;;;;;;;;;;;11.17;90.71;100459.77;105981;1254;74667;-82
2023/10/22 06:50:00;;;;;;;;;;;;;;;11.22;90.63;100459.85;106084;1256;64981;-82
2023/10/22 06:52:27;;;;;;;;;;;;;;;11.26;90.69;100456.94;106039;1256;71458;-82
2023/10/22 06:54:54;;;;;;;;;;;;;;;11.31;90.55;100460.71;105850;1256;61334;-82
2023/10/22 06:57:20;;;;;;;;;;;;;;;11.33;90.29;100463.05;105766;1254;124959;-82
2023/10/22 06:59:50;;;;;;;;;;;;;;;11.32;90.13;100462.14;105867;1258;73708;-82
2023/10/22 07:02:17;;;;;;;;;;;;;;;11.32;89.93;100466.19;105856;1258;125496;-81
2023/10/22 07:04:44;;;;;;;;;;;;;;;11.29;89.85;100474.92;105838;1254;72728;-82
2023/10/22 07:07:11;;;;;;;;;;;;;;;11.29;89.79;100479.30;105905;1258;61440;-82
2023/10/22 07:09:37;;;;;;;;;;;;;;;11.29;89.85;100480.54;105761;1255;124753;-83
2023/10/22 07:12:04;;;;;;;;;;;;;;;11.32;89.91;100483.04;105914;1255;61257;-83
2023/10/22 07:14:31;;;;;;;;;;;;;;;11.35;89.85;100482.39;105796;1256;125059;-81
2023/10/22 07:16:57;;;;;;;;;;;;;;;11.38;89.88;100487.36;105875;1256;72712;-83
2023/10/22 07:19:24;;;;;;;;;;;;;;;11.41;89.77;100487.25;106013;1257;61370;-81
2023/10/22 07:21:50;;;;;;;;;;;;;;;11.43;89.63;100487.80;105927;1256;124747;-81
2023/10/22 07:24:17;;;;;;;;;;;;;;;11.43;89.47;100486.94;106036;1256;61424;-82
2023/10/22 07:26:44;;;;;;;;;;;;;;;11.43;89.25;100491.31;105819;1254;125325;-81
2023/10/22 07:29:12;;;;;;;;;;;;;;;11.41;89.14;100493.74;105981;1255;73063;-82
2023/10/22 07:31:39;;;;;;;;;;;;;;;11.41;89.14;100488.64;105974;1256;61308;-82
2023/10/22 07:34:06;;;;;;;;;;;;;;;11.45;89.34;100491.01;105979;1256;125143;-81
2023/10/22 07:36:32;;;;;;;;;;;;;;;11.51;89.41;100488.10;106020;1255;74683;-81
2023/10/22 07:38:59;;;;;;;;;;;;;;;11.55;89.25;100483.80;105846;1256;126511;-81
2023/10/22 07:41:26;;;;;;;;;;;;;;;11.58;89.15;100484.55;106046;1254;72788;-82
2023/10/22 07:43:53;;;;;;;;;;;;;;;11.59;89.01;100486.85;105995;1256;61267;-82
2023/10/22 07:46:20;;;;;;;;;;;;;;;11.64;89.08;100489.39;105871;1254;124753;-83
2023/10/22 07:48:46;;;;;;;;;;;;;;;11.72;89.18;100490.92;106019;1254;74636;-83
2023/10/22 07:51:13;;;;;;;;;;;;;;;11.78;88.98;100487.85;105950;1256;124829;-82
2023/10/22 07:53:40;;;;;;;;;;;;;;;11.85;89.09;100486.91;106030;1256;73081;-83
2023/10/22 07:56:07;;;;;;;;;;;;;;;11.94;88.98;100484.61;105970;1254;125200;-82
2023/10/22 07:58:34;;;;;;;;;;;;;;;12.02;89.04;100483.34;106103;1254;61349;-82
2023/10/22 08:01:01;;;;;;;;;;;;;;;12.11;88.88;100472.20;105969;1258;75533;-82
2023/10/22 08:03:28;;;;;;;;;;;;;;;12.19;88.63;100465.80;106024;1256;124725;-82
2023/10/22 08:05:56;;;;;;;;;;;;;;;12.24;88.38;100463.59;106019;1255;77716;-83
2023/10/22 08:08:22;;;;;;;;;;;;;;;12.31;88.24;100465.95;105969;1256;125380;-82
2023/10/22 08:10:49;;;;;;;;;;;;;;;12.39;88.24;100464.31;106079;1255;61337;-83
2023/10/22 08:13:19;;;;;;;;;;;;;;;12.50;88.13;100464.80;106076;1257;74664;-82
2023/10/22 08:15:46;;;;;;;;;;;;;;;12.60;88.03;100479.02;105880;1255;125291;-83
2023/10/22 08:18:13;;;;;;;;;;;;;;;12.66;87.58;100492.64;106045;1256;71912;-83
2023/10/22 08:20:39;;;;;;;;;;;;;;;12.69;87.63;100486.52;105980;1257;125105;-82
2023/10/22 08:23:06;;;;;;;;;;;;;;;12.74;87.48;100496.44;106079;1256;61160;-82
2023/10/22 08:25:32;;;;;;;;;;;;;;;12.78;87.35;100489.78;106085;1254;72851;-83
2023/10/22 08:27:59;;;;;;;;;;;;;;;12.82;87.20;100493.71;105893;1258;125172;-83
2023/10/22 08:30:25;;;;;;;;;;;;;;;12.83;87.03;100496.36;106017;1254;71464;-82
2023/10/22 08:32:52;;;;;;;;;;;;;;;12.86;87.05;100490.23;105936;1256;125412;-82
2023/10/22 08:35:19;;;;;;;;;;;;;;;12.89;86.97;100490.26;106117;1257;61250;-81
2023/10/22 08:37:45;;;;;;;;;;;;;;;12.90;86.85;100479.17;106042;1254;74816;-82
2023/10/22 08:40:12;;;;;;;;;;;;;;;12.94;86.91;100486.27;106006;1257;125323;-82
2023/10/22 08:42:39;;;;;;;;;;;;;;;12.98;86.94;100477.86;105997;1256;72723;-83
2023/10/22 08:45:07;;;;;;;;;;;;;;;13.05;86.98;100484.27;105904;1259;125102;-82
2023/10/22 08:47:34;;;;;;;;;;;;;;;13.09;86.80;100480.44;106763;1255;61235;-82
2023/10/22 08:50:01;;;;;;;;;;;;;;;13.15;86.74;100480.86;106003;1256;73323;-82
2023/10/22 08:52:27;;;;;;;;;;;;;;;13.23;86.63;100482.17;106229;1254;64459;-83
2023/10/22 08:54:54;;;;;;;;;;;;;;;13.33;86.36;100480.00;106060;1257;61366;-82
2023/10/22 08:57:21;;;;;;;;;;;;;;;13.40;86.38;100477.79;105986;1257;125480;-83
2023/10/22 08:59:48;;;;;;;;;;;;;;;13.49;86.20;100474.85;106034;1255;61376;-82
2023/10/22 09:02:21;;;;;;;;;;;;;;;13.57;86.27;100473.70;106025;1257;125145;-82
2023/10/22 09:04:48;;;;;;;;;;;;;;;13.63;85.78;100474.98;109303;1253;66688;-83
2023/10/22 09:07:15;;;;;;;;;;;;;;;13.67;85.58;100471.48;107130;1253;72703;-82
2023/10/22 09:09:43;;;;;;;;;;;;;;;13.72;85.58;100472.40;105872;1253;124933;-82
2023/10/22 09:12:10;;;;;;;;;;;;;;;13.77;85.48;100469.43;105925;1255;61240;-82
2023/10/22 09:14:36;;;;;;;;;;;;;;;13.82;85.36;100470.02;105814;1256;124924;-82
2023/10/22 09:17:19;;;;;;;;;;;;;;;13.83;85.14;100466.66;105986;1253;64711;-82
2023/10/22 09:19:48;;;;;;;;;;;;;;;13.87;85.09;100461.58;105748;1256;169267;-82
2023/10/22 09:22:22;;;;;;;;;;;;;;;13.94;85.23;100452.98;105830;1256;124933;-82
2023/10/22 09:24:50;;;;;;;;;;;;;;;14.02;85.07;100445.09;105916;1256;61251;-82
2023/10/22 09:27:22;;;;;;;;;;;;;;;14.13;85.09;100441.79;105811;1258;125288;-82
2023/10/22 09:29:49;;;;;;;;;;;;;;;14.22;84.88;100440.44;105974;1256;65298;-83
2023/10/22 09:32:15;;;;;;;;;;;;;;;14.29;84.61;100444.55;105976;1256;125022;-81
2023/10/22 09:34:42;;;;;;;;;;;;;;;14.36;84.70;100437.34;105811;1256;61452;-84
2023/10/22 09:37:09;;;;;;;;;;;;;;;14.48;84.67;100430.48;105878;1256;61369;-81
2023/10/22 09:39:36;;;;;;;;;;;;;;;14.57;84.32;100428.06;105870;1254;124397;-82
2023/10/22 09:42:05;;;;;;;;;;;;;;;14.64;84.25;100426.34;105914;1256;65566;-83
2023/10/22 09:44:32;;;;;;;;;;;;;;;14.72;84.02;100418.60;105798;1256;124379;-82
2023/10/22 09:47:00;;;;;;;;;;;;;;;14.74;83.74;100421.79;105936;1258;61623;-83
2023/10/22 09:49:38;;;;;;;;;;;;;;;14.78;83.89;100424.09;105927;1257;61279;-83
2023/10/22 09:52:08;;;;;;;;;;;;;;;14.86;83.92;100423.93;105904;1256;124051;-82
2023/10/22 09:54:39;;;;;;;;;;;;;;;14.94;83.77;100421.30;106049;1258;66054;-82
2023/10/22 09:57:09;;;;;;;;;;;;;;;14.97;83.47;100414.59;105890;1258;124301;-82
2023/10/22 09:59:36;;;;;;;;;;;;;;;14.95;83.26;100413.00;105997;1261;61355;-82
2023/10/22 10:02:04;;;;;;;;;;;;;;;14.95;83.19;100408.74;105923;1259;125275;-81
2023/10/22 10:04:31;;;;;;;;;;;;;;;15.01;83.33;100408.40;105971;1258;74643;-83
2023/10/22 10:06:58;;;;;;;;;;;;;;;15.09;83.18;100405.06;106005;1258;66257;-83
2023/10/22 10:09:24;;;;;;;;;;;;;;;15.11;82.82;100399.77;105848;1256;124969;-82
2023/10/22 10:11:51;;;;;;;;;;;;;;;15.12;82.86;100398.17;105863;1256;61337;-82
2023/10/22 10:14:36;;;;;;;;;;;;;;;15.16;82.85;100394.29;105779;1257;125176;-82
2023/10/22 10:17:03;;;;;;;;;;;;;;;15.20;82.73;100396.77;105975;1254;74741;-82
2023/10/22 10:19:29;;;;;;;;;;;;;;;15.26;82.82;100396.23;105942;1255;66211;-83
2023/10/22 10:21:56;;;;;;;;;;;;;;;15.33;82.66;100393.05;105935;1254;125037;-82
2023/10/22 10:24:29;;;;;;;;;;;;;;;15.37;82.61;100390.58;105985;1258;61350;-83
2023/10/22 10:26:56;;;;;;;;;;;;;;;15.45;82.63;100385.97;105811;1258;124769;-82
2023/10/22 10:29:23;;;;;;;;;;;;;;;15.55;82.67;100384.90;106015;1259;74636;-82
2023/10/22 10:31:51;;;;;;;;;;;;;;;15.54;82.20;100381.55;106018;1254;65136;-82
2023/10/22 10:34:36;;;;;;;;;;;;;;;15.56;82.23;100378.52;105931;1256;124748;-82
2023/10/22 10:37:13;;;;;;;;;;;;;;;15.62;82.21;100375.33;105940;1256;61418;-82
2023/10/22 10:39:40;;;;;;;;;;;;;;;15.70;82.35;100371.44;105858;1256;124787;-81
2023/10/22 10:42:07;;;;;;;;;;;;;;;15.82;82.54;100367.55;105956;1258;74675;-82
2023/10/22 10:44:52;;;;;;;;;;;;;;;15.92;82.24;100365.39;105904;1258;125218;-82
2023/10/22 10:47:22;;;;;;;;;;;;;;;15.98;82.04;100357.77;105987;1258;71803;-82
2023/10/22 10:49:50;;;;;;;;;;;;;;;16.04;82.02;100354.20;106034;1256;61248;-76
2023/10/22 10:52:17;;;;;;;;;;;;;;;16.14;82.18;100352.58;107248;1256;124920;-75
2023/10/22 10:54:57;;;;;;;;;;;;;;;16.22;81.94;100351.84;105962;1256;74690;-82
2023/10/22 10:57:36;;;;;;;;;;;;;;;16.30;81.96;100350.55;105875;1258;124915;-82
2023/10/22 11:00:04;;;;;;;;;;;;;;;16.38;81.84;100346.61;105921;1254;72638;-82
2023/10/22 11:02:43;;;;;;;;;;;;;;;16.44;81.66;100338.63;105833;1254;124961;-82
2023/10/22 11:05:09;;;;;;;;;;;;;;;16.50;81.52;100336.64;105921;1256;61210;-82
2023/10/22 11:07:36;;;;;;;;;;;;;;;16.57;81.36;100336.05;105925;1259;75681;-82
2023/10/22 11:10:14;;;;;;;;;;;;;;;16.59;81.21;100334.80;105726;1256;124412;-82
2023/10/22 11:12:41;;;;;;;;;;;;;;;16.58;80.95;100333.39;106342;1255;71930;-82
2023/10/22 11:15:09;;;;;;;;;;;;;;;16.57;81.05;100333.94;105818;1254;124244;-83
2023/10/22 11:17:35;;;;;;;;;;;;;;;16.62;81.19;100336.38;105892;1256;61240;-83
2023/10/22 11:20:04;;;;;;;;;;;;;;;16.71;81.30;100337.21;105813;1256;124219;-78
2023/10/22 11:22:31;;;;;;;;;;;;;;;16.78;81.21;100334.50;105956;1256;66012;-83
2023/10/22 11:24:59;;;;;;;;;;;;;;;16.86;81.09;100334.48;105884;1256;72969;-83
2023/10/22 11:27:26;;;;;;;;;;;;;;;16.85;80.70;100335.90;106120;1258;124566;-83
2023/10/22 11:29:53;;;;;;;;;;;;;;;16.79;80.54;100334.33;105941;1255;59624;-83
2023/10/22 11:32:20;;;;;;;;;;;;;;;16.80;80.74;100332.37;105812;1256;124289;-83
2023/10/22 11:34:54;;;;;;;;;;;;;;;16.84;80.72;100332.54;106497;1254;65966;-83
2023/10/22 11:37:21;;;;;;;;;;;;;;;16.83;80.59;100334.48;109149;1254;72864;-81
2023/10/22 11:39:47;;;;;;;;;;;;;;;16.82;80.44;100333.96;108993;1254;124909;-82
2023/10/22 11:42:14;;;;;;;;;;;;;;;16.79;80.20;100337.34;106992;1256;61202;-82
2023/10/22 11:44:42;;;;;;;;;;;;;;;16.77;80.33;100336.64;105817;1256;124990;-82
2023/10/22 11:47:24;;;;;;;;;;;;;;;16.78;80.27;100332.02;105883;1258;66427;-82
2023/10/22 11:49:54;;;;;;;;;;;;;;;16.79;80.17;100333.60;106197;1256;72732;-81
2023/10/22 11:52:56;;;;;;;;;;;;;;;16.76;80.04;100332.39;105928;1254;125229;-81
2023/10/22 11:55:23;;;;;;;;;;;;;;;16.70;79.97;100330.30;105375;1262;61437;-81
2023/10/22 11:57:49;;;;;;;;;;;;;;;16.68;80.03;100334.56;105367;1262;125459;-82
2023/10/22 12:00:16;;;;;;;;;;;;;;;16.70;80.17;100334.73;105656;1260;66684;-82
2023/10/22 12:02:43;;;;;;;;;;;;;;;16.72;80.08;100337.73;105431;1267;125347;-82
2023/10/22 12:05:11;;;;;;;;;;;;;;;16.67;79.92;100338.30;105443;1267;61459;-81
2023/10/22 12:07:38;;;;;;;;;;;;;;;16.67;79.92;100334.92;105503;1260;61276;-82
2023/10/22 12:10:06;;;;;;;;;;;;;;;16.63;79.68;100338.15;105477;1260;125427;-82
2023/10/22 12:12:33;;;;;;;;;;;;;;;16.49;79.38;100337.52;108923;1259;64582;-82
2023/10/22 12:14:59;;;;;;;;;;;;;;;16.39;79.47;100343.25;108750;1259;124031;-83
2023/10/22 12:17:26;;;;;;;;;;;;;;;16.34;79.64;100343.63;106463;1259;61165;-82
2023/10/22 12:19:53;;;;;;;;;;;;;;;16.26;79.62;100349.68;105590;1265;61474;-82
2023/10/22 12:22:20;;;;;;;;;;;;;;;16.22;79.77;100353.25;105490;1259;124388;-82
2023/10/22 12:24:48;;;;;;;;;;;;;;;16.12;79.50;100358.08;105626;1260;65082;-82